Time;durP1;ratioP1;P1;durP2;ratioP2;P2;SDS_P1;SDS_P2;PMS_P1;PMS_P2;Temp;Humidity;BMP_temperature;BMP_pressure;BME280_temperature;BME280_humidity;BME280_pressure;Samples;Min_cycle;Max_cycle;Signal;HPM_P1;HPM_P2
2022/01/18 00:01:41;;;;;;;45.28;5.28;;;;;;;-141.50;100.00;63355.56;4999223;28;20217;-84
2022/01/18 00:04:07;;;;;;;47.10;5.22;;;;;;;-141.50;100.00;63355.56;4994556;28;20089;-84
2022/01/18 00:06:35;;;;;;;46.53;5.40;;;;;;;-141.50;100.00;63355.56;4996750;28;20420;-84
2022/01/18 00:09:02;;;;;;;37.08;5.00;;;;;;;-141.50;100.00;63355.56;4994213;28;20046;-84
2022/01/18 00:11:35;;;;;;;52.58;5.88;;;;;;;-141.50;100.00;63355.56;4993666;28;20054;-83
2022/01/18 00:14:09;;;;;;;46.95;5.82;;;;;;;-141.50;100.00;63355.56;4994147;28;20050;-84
2022/01/18 00:17:01;;;;;;;43.47;5.18;;;;;;;-141.50;100.00;63355.56;4994153;28;20157;-82
2022/01/18 00:19:25;;;;;;;43.85;4.85;;;;;;;-141.50;100.00;63355.56;4993910;28;20051;-80
2022/01/18 00:24:27;;;;;;;46.75;5.38;;;;;;;-141.50;100.00;63355.56;4993974;28;20057;-82
2022/01/18 00:26:53;;;;;;;56.40;6.18;;;;;;;-141.50;100.00;63355.56;5007799;28;20253;-81
2022/01/18 00:29:23;;;;;;;53.15;5.25;;;;;;;-141.50;100.00;63355.56;4992267;28;20043;-82
2022/01/18 00:39:15;;;;;;;44.45;5.65;;;;;;;-141.50;100.00;63355.56;4994375;28;20066;-82
2022/01/18 00:41:42;;;;;;;52.42;5.07;;;;;;;-141.50;100.00;63355.56;4997950;28;20043;-83
2022/01/18 00:44:09;;;;;;;50.88;5.65;;;;;;;-141.50;100.00;63355.56;4990916;28;20054;-82
2022/01/18 00:46:37;;;;;;;50.00;5.25;;;;;;;-141.50;100.00;63355.56;4989837;28;20069;-83
2022/01/18 00:49:05;;;;;;;50.15;5.10;;;;;;;-141.50;100.00;63355.56;5004028;28;20051;-82
2022/01/18 00:51:37;;;;;;;48.03;5.22;;;;;;;-141.50;100.00;63355.56;4997371;28;20061;-84
2022/01/18 00:54:05;;;;;;;56.85;6.22;;;;;;;-141.50;100.00;63355.56;4997063;28;20124;-83
2022/01/18 00:56:32;;;;;;;47.10;4.90;;;;;;;-141.50;100.00;63355.56;4996397;28;20050;-84
2022/01/18 00:59:00;;;;;;;47.08;4.80;;;;;;;-141.50;100.00;63355.56;4997262;28;20046;-83
2022/01/18 01:01:30;;;;;;;49.88;5.75;;;;;;;-141.50;100.00;63355.56;4979732;28;20061;-82
2022/01/18 01:04:02;;;;;;;44.35;5.50;;;;;;;-141.50;100.00;63355.56;4995608;28;20046;-81
2022/01/18 01:06:31;;;;;;;41.92;4.15;;;;;;;-141.50;100.00;63355.56;4978148;28;20057;-82
2022/01/18 01:08:58;;;;;;;50.60;5.18;;;;;;;-141.50;100.00;63355.56;4978490;28;20108;-82
2022/01/18 01:11:25;;;;;;;41.30;5.07;;;;;;;-141.50;100.00;63355.56;4979406;28;20050;-82
2022/01/18 01:13:54;;;;;;;48.22;5.47;;;;;;;-141.50;100.00;63355.56;4996642;28;20411;-83
2022/01/18 01:16:46;;;;;;;45.42;5.00;;;;;;;-141.50;100.00;63355.56;4979266;28;20481;-84
2022/01/18 01:19:41;;;;;;;39.78;4.38;;;;;;;-141.50;100.00;63355.56;4995985;28;20516;-82
2022/01/18 01:36:04;;;;;;;55.15;5.30;;;;;;;-141.50;100.00;63355.56;4997016;28;20050;-84
2022/01/18 01:44:21;;;;;;;33.15;3.85;;;;;;;-141.50;100.00;63355.56;4996736;28;20141;-83
2022/01/18 01:46:49;;;;;;;49.15;4.85;;;;;;;-141.50;100.00;63355.56;4979490;28;20058;-80
2022/01/18 01:49:15;;;;;;;52.97;5.07;;;;;;;-141.50;100.00;63355.56;5003698;28;20058;-83
2022/01/18 01:51:43;;;;;;;36.42;4.18;;;;;;;-141.50;100.00;63355.56;4985646;28;20077;-83
2022/01/18 01:54:11;;;;;;;52.33;6.18;;;;;;;-141.50;100.00;63355.56;4978055;28;20051;-82
2022/01/18 01:56:38;;;;;;;39.22;5.35;;;;;;;-141.50;100.00;63355.56;4995298;28;20078;-82
2022/01/18 01:59:05;;;;;;;44.33;5.20;;;;;;;-141.50;100.00;63355.56;4995775;28;20434;-82
2022/01/18 02:01:43;;;;;;;45.33;6.05;;;;;;;-141.50;100.00;63355.56;4979061;28;20078;-81
2022/01/18 02:04:10;;;;;;;44.60;5.10;;;;;;;-141.50;100.00;63355.56;4994573;28;20089;-81
2022/01/18 02:06:37;;;;;;;46.75;4.90;;;;;;;-141.50;100.00;63355.56;4994621;28;20050;-81
2022/01/18 02:09:04;;;;;;;51.85;4.97;;;;;;;-141.50;100.00;63355.56;4977548;28;20101;-82
2022/01/18 02:11:31;;;;;;;49.97;5.13;;;;;;;-141.50;100.00;63355.56;4995750;28;20129;-82
2022/01/18 02:13:59;;;;;;;45.20;5.22;;;;;;;-141.50;100.00;63355.56;4980470;28;20086;-84
2022/01/18 02:21:56;;;;;;;44.78;4.35;;;;;;;-141.50;100.00;63355.56;4996630;28;19944;-82
2022/01/18 02:24:23;;;;;;;44.05;4.88;;;;;;;-141.50;100.00;63355.56;4996007;28;20061;-82
2022/01/18 02:26:50;;;;;;;50.90;5.13;;;;;;;-141.50;100.00;63355.56;5013145;28;20054;-82
2022/01/18 02:29:17;;;;;;;57.35;5.90;;;;;;;-141.50;100.00;63355.56;5014909;28;20117;-82
2022/01/18 02:31:44;;;;;;;40.10;4.72;;;;;;;-141.50;100.00;63355.56;5015867;28;20060;-81
2022/01/18 02:34:15;;;;;;;51.83;6.13;;;;;;;-141.50;100.00;63355.56;4997989;28;20050;-82
2022/01/18 02:36:43;;;;;;;39.13;4.97;;;;;;;-141.50;100.00;63355.56;4997477;28;20076;-83
2022/01/18 02:39:11;;;;;;;47.35;4.75;;;;;;;-141.50;100.00;63355.56;5015581;28;20153;-83
2022/01/18 02:41:37;;;;;;;37.35;4.57;;;;;;;-141.50;100.00;63355.56;5015200;28;20104;-83
2022/01/18 02:44:09;;;;;;;42.60;3.95;;;;;;;-141.50;100.00;63355.56;5014346;28;20046;-82
2022/01/18 02:46:35;;;;;;;36.72;4.50;;;;;;;-141.50;100.00;63355.56;4997247;28;20050;-82
2022/01/18 02:49:03;;;;;;;50.60;4.47;;;;;;;-141.50;100.00;63355.56;5014218;28;20046;-84
2022/01/18 02:51:30;;;;;;;39.45;4.05;;;;;;;-141.50;100.00;63355.56;5014706;28;20104;-83
2022/01/18 02:54:00;;;;;;;57.28;5.38;;;;;;;-141.50;100.00;63355.56;4996045;28;20050;-82
2022/01/18 02:56:34;;;;;;;53.75;5.70;;;;;;;-141.50;100.00;63355.56;5015894;28;20092;-83
2022/01/18 02:59:47;;;;;;;35.55;4.68;;;;;;;-141.50;100.00;63355.56;5012555;28;20493;-84
2022/01/18 03:04:42;;;;;;;33.90;4.30;;;;;;;-141.50;100.00;63355.56;5015090;28;20050;-83
2022/01/18 03:07:09;;;;;;;48.03;5.43;;;;;;;-141.50;100.00;63355.56;5014861;28;20085;-83
2022/01/18 03:09:36;;;;;;;53.20;4.47;;;;;;;-141.50;100.00;63355.56;5016802;28;20045;-84
2022/01/18 03:12:04;;;;;;;35.33;4.20;;;;;;;-141.50;100.00;63355.56;5030079;28;20384;-84
2022/01/18 03:14:31;;;;;;;30.58;4.55;;;;;;;-141.50;100.00;63355.56;5015223;28;20050;-83
2022/01/18 03:16:58;;;;;;;40.50;4.70;;;;;;;-141.50;100.00;63355.56;5030767;28;20045;-82
2022/01/18 03:19:24;;;;;;;34.22;3.92;;;;;;;-141.50;100.00;63355.56;5015064;28;20076;-83
2022/01/18 03:21:55;;;;;;;39.58;4.38;;;;;;;-141.50;100.00;63355.56;5015448;28;20046;-83
2022/01/18 03:29:38;;;;;;;36.15;3.70;;;;;;;-141.50;100.00;63355.56;5013950;28;20054;-83
2022/01/18 03:32:06;;;;;;;42.80;3.80;;;;;;;-141.50;100.00;63355.56;4998647;28;20111;-83
2022/01/18 03:34:33;;;;;;;37.30;3.72;;;;;;;-141.50;100.00;63355.56;4998057;28;20080;-83
2022/01/18 03:37:00;;;;;;;32.97;3.75;;;;;;;-141.50;100.00;63355.56;4996104;28;20499;-84
2022/01/18 03:39:27;;;;;;;37.00;4.68;;;;;;;-141.50;100.00;63355.56;5014632;28;20046;-83
2022/01/18 03:42:12;;;;;;;41.97;4.32;;;;;;;-141.50;100.00;63355.56;5014998;28;20136;-83
2022/01/18 03:44:39;;;;;;;36.00;4.15;;;;;;;-141.50;100.00;63355.56;5014569;28;20349;-83
2022/01/18 03:47:08;;;;;;;35.70;3.88;;;;;;;-141.50;100.00;63355.56;4997405;28;20141;-82
2022/01/18 03:49:36;;;;;;;35.20;4.00;;;;;;;-141.50;100.00;63355.56;5013842;28;20285;-82
2022/01/18 03:52:03;;;;;;;30.13;4.05;;;;;;;-141.50;100.00;63355.56;5014862;28;20135;-82
2022/01/18 03:54:30;;;;;;;35.30;4.90;;;;;;;-141.50;100.00;63355.56;5014181;28;20138;-83
2022/01/18 03:56:57;;;;;;;31.27;3.75;;;;;;;-141.50;100.00;63355.56;5012815;28;20149;-83
2022/01/18 03:59:24;;;;;;;38.83;4.32;;;;;;;-141.50;100.00;63355.56;5014321;28;20081;-83
2022/01/18 04:01:50;;;;;;;45.17;4.53;;;;;;;-141.50;100.00;63355.56;4996502;28;20153;-83
2022/01/18 04:04:19;;;;;;;33.97;3.88;;;;;;;-141.50;100.00;63355.56;4996918;28;20050;-83
2022/01/18 04:06:45;;;;;;;34.38;4.00;;;;;;;-141.50;100.00;63355.56;5014292;28;20402;-84
2022/01/18 04:09:14;;;;;;;30.70;3.47;;;;;;;-141.50;100.00;63355.56;5014190;28;20426;-83
2022/01/18 04:11:41;;;;;;;25.70;2.78;;;;;;;-141.50;100.00;63355.56;4997182;28;20050;-83
2022/01/18 04:14:08;;;;;;;34.90;4.07;;;;;;;-141.50;100.00;63355.56;5014817;28;20050;-83
2022/01/18 04:16:43;;;;;;;41.83;5.07;;;;;;;-141.50;100.00;63355.56;4997025;28;20061;-82
2022/01/18 04:25:45;;;;;;;24.73;3.28;;;;;;;-141.50;100.00;63355.56;4996396;28;20074;-83
2022/01/18 04:27:33;;;;;;;32.85;3.90;;;;;;;-141.50;100.00;63355.56;5024195;28;20050;-84
2022/01/18 04:30:00;;;;;;;36.08;3.40;;;;;;;-141.50;100.00;63355.56;5008283;28;20046;-84
2022/01/18 04:32:27;;;;;;;34.05;4.15;;;;;;;-141.50;100.00;63355.56;5018979;28;20046;-82
2022/01/18 04:34:53;;;;;;;34.90;3.33;;;;;;;-141.50;100.00;63355.56;5017335;28;20184;-82
2022/01/18 04:37:20;;;;;;;38.42;4.07;;;;;;;-141.50;100.00;63355.56;5011881;28;20046;-82
2022/01/18 04:39:48;;;;;;;38.42;3.92;;;;;;;-141.50;100.00;63355.56;4979011;28;20042;-83
2022/01/18 04:42:32;;;;;;;34.30;4.00;;;;;;;-141.50;100.00;63355.56;4994980;28;20054;-83
2022/01/18 04:50:29;;;;;;;37.95;4.40;;;;;;;-141.50;100.00;63355.56;4995026;28;20058;-83
2022/01/18 04:52:56;;;;;;;33.95;3.63;;;;;;;-141.50;100.00;63355.56;4994599;28;20062;-83
2022/01/18 04:55:30;;;;;;;18.75;3.90;;;;;;;-141.50;100.00;63355.56;4996959;28;20050;-83
2022/01/18 04:57:56;;;;;;;37.72;3.90;;;;;;;-141.50;100.00;63355.56;4995268;28;20116;-83
2022/01/18 05:00:25;;;;;;;38.22;5.82;;;;;;;-141.50;100.00;63355.56;4996293;28;20043;-83
2022/01/18 05:02:52;;;;;;;35.90;3.97;;;;;;;-141.50;100.00;63355.56;4991443;28;20117;-83
2022/01/18 05:05:26;;;;;;;34.30;4.10;;;;;;;-141.50;100.00;63355.56;4975791;28;20050;-82
2022/01/18 05:07:54;;;;;;;28.90;4.45;;;;;;;-141.50;100.00;63355.56;4993235;28;20096;-81
2022/01/18 05:10:25;;;;;;;44.95;4.70;;;;;;;-141.50;100.00;63355.56;4993710;28;20046;-83
2022/01/18 05:12:53;;;;;;;36.10;4.18;;;;;;;-141.50;100.00;63355.56;4993657;28;20054;-81
2022/01/18 05:21:06;;;;;;;33.08;4.15;;;;;;;-141.50;100.00;63355.56;5013505;28;20119;-82
2022/01/18 05:23:32;;;;;;;38.97;4.40;;;;;;;-141.50;100.00;63355.56;5014414;28;20092;-83
2022/01/18 05:25:59;;;;;;;39.33;4.38;;;;;;;-141.50;100.00;63355.56;5027889;28;20064;-83
2022/01/18 05:28:26;;;;;;;32.60;3.65;;;;;;;-141.50;100.00;63355.56;5026916;28;20637;-83
2022/01/18 05:30:52;;;;;;;35.42;3.67;;;;;;;-141.50;100.00;63355.56;5022320;28;20463;-84
2022/01/18 05:33:22;;;;;;;33.08;3.83;;;;;;;-141.50;100.00;63355.56;5020348;28;20056;-83
2022/01/18 05:35:49;;;;;;;39.15;3.78;;;;;;;-141.50;100.00;63355.56;5006789;28;20046;-82
2022/01/18 05:38:16;;;;;;;38.78;4.32;;;;;;;-141.50;100.00;63355.56;5007482;28;20108;-82
2022/01/18 05:40:43;;;;;;;30.85;3.60;;;;;;;-141.50;100.00;63355.56;5009708;28;20057;-82
2022/01/18 05:43:09;;;;;;;30.20;3.55;;;;;;;-141.50;100.00;63355.56;5017916;28;20049;-80
2022/01/18 05:45:36;;;;;;;35.47;3.83;;;;;;;-141.50;100.00;63355.56;5017981;28;20514;-82
2022/01/18 05:48:03;;;;;;;32.70;3.92;;;;;;;-141.50;100.00;63355.56;5012088;28;20104;-82
2022/01/18 05:50:30;;;;;;;37.88;3.78;;;;;;;-141.50;100.00;63355.56;5014243;28;20502;-81
2022/01/18 05:53:04;;;;;;;26.13;3.25;;;;;;;-141.50;100.00;63355.56;5014449;28;20100;-84
2022/01/18 05:55:32;;;;;;;48.50;4.35;;;;;;;-141.50;100.00;63355.56;5016265;28;20053;-83
2022/01/18 05:57:58;;;;;;;43.53;4.68;;;;;;;-141.50;100.00;63355.56;5017718;28;20065;-83
2022/01/18 06:00:27;;;;;;;45.20;4.78;;;;;;;-141.50;100.00;63355.56;5000543;28;20053;-85
2022/01/18 06:08:18;;;;;;;26.85;3.20;;;;;;;-141.50;100.00;63355.56;5021497;28;20049;-83
2022/01/18 06:10:44;;;;;;;32.42;4.28;;;;;;;-141.50;100.00;63355.56;5018358;28;20049;-83
2022/01/18 06:13:13;;;;;;;40.15;4.20;;;;;;;-141.50;100.00;63355.56;4996729;28;20054;-84
2022/01/18 06:15:40;;;;;;;32.75;4.10;;;;;;;-141.50;100.00;63355.56;4996080;28;20061;-84
2022/01/18 06:18:06;;;;;;;38.28;4.53;;;;;;;-141.50;100.00;63355.56;5013069;28;20184;-83
2022/01/18 06:20:34;;;;;;;32.08;4.32;;;;;;;-141.50;100.00;63355.56;4996156;28;20502;-83
2022/01/18 06:23:01;;;;;;;42.10;4.90;;;;;;;-141.50;100.00;63355.56;5013730;28;20100;-83
2022/01/18 06:25:28;;;;;;;41.33;4.30;;;;;;;-141.50;100.00;63355.56;5005653;28;20085;-84
2022/01/18 06:27:55;;;;;;;37.58;4.25;;;;;;;-141.50;100.00;63355.56;5010942;28;20108;-84
2022/01/18 06:30:21;;;;;;;40.08;4.88;;;;;;;-141.50;100.00;63355.56;4997111;28;20054;-84
2022/01/18 06:32:48;;;;;;;32.88;4.72;;;;;;;-141.50;100.00;63355.56;5011107;28;20060;-83
2022/01/18 06:35:17;;;;;;;41.33;5.50;;;;;;;-141.50;100.00;63355.56;5012419;28;20053;-83
2022/01/18 06:37:45;;;;;;;34.72;4.55;;;;;;;-141.50;100.00;63355.56;5028802;28;20103;-84
2022/01/18 06:40:12;;;;;;;50.58;5.65;;;;;;;-141.50;100.00;63355.56;5032366;28;20042;-83
2022/01/18 06:42:39;;;;;;;44.20;5.05;;;;;;;-141.50;100.00;63355.56;5032630;28;20103;-81
2022/01/18 06:45:07;;;;;;;41.17;5.88;;;;;;;-141.50;100.00;63355.56;5028931;28;20053;-83
2022/01/18 06:47:34;;;;;;;45.45;5.68;;;;;;;-141.50;100.00;63355.56;5015657;28;20046;-82
2022/01/18 06:50:01;;;;;;;45.33;4.60;;;;;;;-141.50;100.00;63355.56;5015441;28;20049;-83
2022/01/18 06:52:27;;;;;;;35.58;4.90;;;;;;;-141.50;100.00;63355.56;5015539;28;20053;-82
2022/01/18 06:54:54;;;;;;;38.05;4.40;;;;;;;-141.50;100.00;63355.56;5018566;28;20108;-83
2022/01/18 06:57:21;;;;;;;42.58;6.22;;;;;;;-141.50;100.00;63355.56;5016510;28;20049;-83
2022/01/18 06:59:47;;;;;;;34.78;4.78;;;;;;;-141.50;100.00;63355.56;5014898;28;20049;-82
2022/01/18 07:02:14;;;;;;;37.63;6.30;;;;;;;-141.50;100.00;63355.56;4998961;28;20050;-82
2022/01/18 07:04:40;;;;;;;37.97;6.90;;;;;;;-141.50;100.00;63355.56;5027156;28;20108;-83
2022/01/18 07:07:07;;;;;;;45.15;6.55;;;;;;;-141.50;100.00;63355.56;4999605;28;20530;-82
2022/01/18 07:09:35;;;;;;;46.08;7.45;;;;;;;-141.50;100.00;63355.56;4995596;28;20049;-82
2022/01/18 07:12:08;;;;;;;49.72;7.90;;;;;;;-141.50;100.00;63355.56;5013281;28;20517;-82
2022/01/18 07:14:35;;;;;;;51.95;6.93;;;;;;;-141.50;100.00;63355.56;4996372;28;20411;-82
2022/01/18 07:17:01;;;;;;;48.47;6.82;;;;;;;-141.50;100.00;63355.56;5013791;28;20050;-83
2022/01/18 07:19:33;;;;;;;35.95;7.13;;;;;;;-141.50;100.00;63355.56;5014416;28;20156;-82
2022/01/18 07:22:00;;;;;;;46.45;8.18;;;;;;;-141.50;100.00;63355.56;5014511;28;20622;-83
2022/01/18 07:24:42;;;;;;;37.22;8.60;;;;;;;-141.50;100.00;63355.56;4995890;28;20061;-83
2022/01/18 07:27:11;;;;;;;32.22;8.20;;;;;;;-141.50;100.00;63355.56;5020971;28;20037;-83
2022/01/18 07:29:41;;;;;;;34.63;8.98;;;;;;;-141.50;100.00;63355.56;5024732;28;20045;-82
2022/01/18 07:32:10;;;;;;;46.13;8.70;;;;;;;-141.50;100.00;63355.56;5012095;28;20046;-83
2022/01/18 07:34:41;;;;;;;37.85;8.23;;;;;;;-141.50;100.00;63355.56;5012489;28;20053;-83
2022/01/18 07:37:09;;;;;;;40.88;10.32;;;;;;;-141.50;100.00;63355.56;4994334;28;20508;-82
2022/01/18 07:39:36;;;;;;;37.50;9.10;;;;;;;-141.50;100.00;63355.56;5012260;28;20054;-82
2022/01/18 07:42:03;;;;;;;41.60;8.88;;;;;;;-141.50;100.00;63355.56;5014661;28;20050;-82
2022/01/18 07:44:30;;;;;;;30.17;9.45;;;;;;;-141.50;100.00;63355.56;5012453;28;20120;-84
2022/01/18 07:46:56;;;;;;;36.65;9.70;;;;;;;-141.50;100.00;63355.56;4995504;28;20060;-83
2022/01/18 07:49:23;;;;;;;37.20;10.18;;;;;;;-141.50;100.00;63355.56;5010063;28;20058;-84
2022/01/18 07:51:50;;;;;;;28.92;8.85;;;;;;;-141.50;100.00;63355.56;5011527;28;20049;-82
2022/01/18 07:54:17;;;;;;;30.85;9.13;;;;;;;-141.50;100.00;63355.56;5011312;28;20528;-83
2022/01/18 07:56:44;;;;;;;34.38;10.07;;;;;;;-141.50;100.00;63355.56;5011796;28;20049;-83
2022/01/18 07:59:12;;;;;;;28.60;9.35;;;;;;;-141.50;100.00;63355.56;5010414;28;20061;-82
2022/01/18 08:01:39;;;;;;;38.03;9.82;;;;;;;-141.50;100.00;63355.56;4994519;28;20053;-83
2022/01/18 08:04:06;;;;;;;27.63;8.77;;;;;;;-141.50;100.00;63355.56;5012217;28;20137;-83
2022/01/18 08:06:33;;;;;;;31.80;10.23;;;;;;;-141.50;100.00;63355.56;5012003;28;20140;-82
2022/01/18 08:08:59;;;;;;;41.80;11.25;;;;;;;-141.50;100.00;63355.56;5012217;28;20046;-82
2022/01/18 08:11:26;;;;;;;35.03;12.35;;;;;;;-141.50;100.00;63355.56;5011745;28;20397;-81
2022/01/18 08:13:52;;;;;;;34.60;12.00;;;;;;;-141.50;100.00;63355.56;5011057;28;20116;-82
2022/01/18 08:16:44;;;;;;;45.35;12.68;;;;;;;-141.50;100.00;63355.56;5002927;28;20445;-81
2022/01/18 08:19:09;;;;;;;28.52;9.93;;;;;;;-141.50;100.00;63355.56;5024384;28;20069;-82
2022/01/18 08:21:35;;;;;;;25.85;9.57;;;;;;;-141.50;100.00;63355.56;5023867;28;20046;-82
2022/01/18 08:24:02;;;;;;;30.17;8.90;;;;;;;-141.50;100.00;63355.56;5020103;28;20148;-83
2022/01/18 08:26:29;;;;;;;33.85;9.27;;;;;;;-141.50;100.00;63355.56;5017985;28;20064;-83
2022/01/18 08:28:55;;;;;;;42.08;8.85;;;;;;;-141.50;100.00;63355.56;5010409;28;20556;-83
2022/01/18 08:31:22;;;;;;;29.83;7.38;;;;;;;-141.50;100.00;63355.56;5011946;28;20112;-82
2022/01/18 08:33:49;;;;;;;32.60;7.18;;;;;;;-141.50;100.00;63355.56;5011842;28;20477;-82
2022/01/18 08:36:15;;;;;;;27.90;6.78;;;;;;;-141.50;100.00;63355.56;5011129;28;20103;-83
2022/01/18 08:38:42;;;;;;;29.63;7.53;;;;;;;-141.50;100.00;63355.56;5011195;28;20089;-82
2022/01/18 08:41:08;;;;;;;27.50;6.38;;;;;;;-141.50;100.00;63355.56;5011259;28;20046;-82
2022/01/18 08:43:37;;;;;;;37.40;7.07;;;;;;;-141.50;100.00;63355.56;5010220;28;20114;-82
2022/01/18 08:46:04;;;;;;;28.90;7.07;;;;;;;-141.50;100.00;63355.56;4995228;28;20061;-83
2022/01/18 08:48:31;;;;;;;26.25;7.00;;;;;;;-141.50;100.00;63355.56;5007768;28;20361;-83
2022/01/18 08:50:59;;;;;;;29.38;6.95;;;;;;;-141.50;100.00;63355.56;5002479;28;20042;-82
2022/01/18 08:53:26;;;;;;;29.23;7.07;;;;;;;-141.50;100.00;63355.56;5013924;28;20081;-82
2022/01/18 08:55:54;;;;;;;29.67;7.57;;;;;;;-141.50;100.00;63355.56;5014666;28;20046;-83
2022/01/18 08:58:23;;;;;;;27.40;6.88;;;;;;;-141.50;100.00;63355.56;4994668;28;20116;-83
2022/01/18 09:00:50;;;;;;;27.30;7.03;;;;;;;-141.50;100.00;63355.56;4994222;28;20550;-82
2022/01/18 09:03:17;;;;;;;21.92;6.90;;;;;;;-141.50;100.00;63355.56;5012986;28;20050;-83
2022/01/18 09:05:45;;;;;;;27.33;6.75;;;;;;;-141.50;100.00;63355.56;5010496;28;20054;-83
2022/01/18 09:08:12;;;;;;;31.02;6.95;;;;;;;-141.50;100.00;63355.56;5012383;28;20049;-82
2022/01/18 09:10:40;;;;;;;22.02;7.07;;;;;;;-141.50;100.00;63355.56;5014133;28;20056;-83
2022/01/18 09:13:07;;;;;;;26.90;8.30;;;;;;;-141.50;100.00;63355.56;4996691;28;20466;-83
2022/01/18 09:15:34;;;;;;;25.95;8.23;;;;;;;-141.50;100.00;63355.56;5015257;28;20096;-83
2022/01/18 09:18:01;;;;;;;30.17;8.95;;;;;;;-141.50;100.00;63355.56;5014421;28;20062;-83
2022/01/18 09:20:27;;;;;;;24.33;9.30;;;;;;;-141.50;100.00;63355.56;5013464;28;20081;-82
2022/01/18 09:22:54;;;;;;;25.45;9.18;;;;;;;-141.50;100.00;63355.56;5013482;28;20068;-82
2022/01/18 09:25:26;;;;;;;23.77;9.50;;;;;;;-141.50;100.00;63355.56;5010194;28;20567;-82
2022/01/18 09:27:54;;;;;;;23.90;9.30;;;;;;;-141.50;100.00;63355.56;5035334;28;20072;-82
2022/01/18 09:30:22;;;;;;;29.08;8.80;;;;;;;-141.50;100.00;63355.56;5017350;28;20046;-82
2022/01/18 09:32:49;;;;;;;21.70;9.07;;;;;;;-141.50;100.00;63355.56;5012662;28;20483;-82
2022/01/18 09:35:16;;;;;;;31.85;9.35;;;;;;;-141.50;100.00;63355.56;5013698;28;20111;-81
2022/01/18 09:37:44;;;;;;;21.23;8.90;;;;;;;-141.50;100.00;63355.56;5014190;28;20062;-81
2022/01/18 09:40:14;;;;;;;27.90;9.75;;;;;;;-141.50;100.00;63355.56;4997376;28;20054;-81
2022/01/18 09:42:43;;;;;;;26.38;9.73;;;;;;;-141.50;100.00;63355.56;4995668;28;20100;-81
2022/01/18 09:45:13;;;;;;;26.13;10.15;;;;;;;-141.50;100.00;63355.56;4997460;28;20065;-81
2022/01/18 09:47:42;;;;;;;25.17;9.15;;;;;;;-141.50;100.00;63355.56;5014190;28;20054;-80
2022/01/18 09:50:11;;;;;;;24.85;9.48;;;;;;;-141.50;100.00;63355.56;5013449;28;20061;-80
2022/01/18 09:52:38;;;;;;;23.25;10.35;;;;;;;-141.50;100.00;63355.56;4996082;28;20089;-82
2022/01/18 09:55:07;;;;;;;25.65;10.90;;;;;;;-141.50;100.00;63355.56;5014196;28;20070;-82
2022/01/18 09:57:35;;;;;;;26.65;10.10;;;;;;;-141.50;100.00;63355.56;4996537;28;20529;-81
2022/01/18 10:00:04;;;;;;;27.02;9.52;;;;;;;-141.50;100.00;63355.56;5013405;28;20058;-80
2022/01/18 10:02:31;;;;;;;26.05;9.65;;;;;;;-141.50;100.00;63355.56;4999488;28;20061;-81
2022/01/18 10:04:59;;;;;;;30.83;9.38;;;;;;;-141.50;100.00;63355.56;5020969;28;20049;-82
2022/01/18 10:07:34;;;;;;;26.33;9.07;;;;;;;-141.50;100.00;63355.56;5014498;28;20139;-82
2022/01/18 10:10:05;;;;;;;27.98;8.65;;;;;;;-141.50;100.00;63355.56;4998043;28;20076;-82
2022/01/18 10:12:32;;;;;;;24.60;8.77;;;;;;;-141.50;100.00;63355.56;5013230;28;20471;-83
2022/01/18 10:15:02;;;;;;;21.05;8.75;;;;;;;-141.50;100.00;63355.56;4977793;28;20066;-82
2022/01/18 10:17:38;;;;;;;27.30;9.00;;;;;;;-141.50;100.00;63355.56;4994323;28;20119;-79
2022/01/18 10:20:16;;;;;;;22.83;9.18;;;;;;;-141.50;100.00;63355.56;4994982;28;20054;-81
2022/01/18 10:22:48;;;;;;;20.20;9.75;;;;;;;-141.50;100.00;63355.56;4993710;28;20155;-81
2022/01/18 10:25:22;;;;;;;21.15;9.85;;;;;;;-141.50;100.00;63355.56;4992018;28;20043;-80
2022/01/18 10:27:51;;;;;;;31.20;11.10;;;;;;;-141.50;100.00;63355.56;5007937;28;20074;-81
2022/01/18 10:30:32;;;;;;;26.45;11.65;;;;;;;-141.50;100.00;63355.56;4993378;28;20133;-82
2022/01/18 10:33:09;;;;;;;28.02;12.40;;;;;;;-141.50;100.00;63355.56;5008153;28;20046;-82
2022/01/18 10:35:36;;;;;;;30.77;12.60;;;;;;;-141.50;100.00;63355.56;5006611;28;20053;-81
2022/01/18 10:38:16;;;;;;;24.85;11.68;;;;;;;-141.50;100.00;63355.56;5009758;28;20046;-82
2022/01/18 10:40:43;;;;;;;31.27;12.27;;;;;;;-141.50;100.00;63355.56;4994560;28;20434;-80
2022/01/18 10:43:23;;;;;;;25.50;11.30;;;;;;;-141.50;100.00;63355.56;5030533;28;20080;-80
2022/01/18 10:45:49;;;;;;;25.92;10.50;;;;;;;-141.50;100.00;63355.56;5031294;28;20107;-81
2022/01/18 10:48:16;;;;;;;37.28;10.85;;;;;;;-141.50;100.00;63355.56;5014894;28;20152;-81
2022/01/18 10:50:46;;;;;;;21.27;9.55;;;;;;;-141.50;100.00;63355.56;5030535;28;20402;-81
2022/01/18 10:53:17;;;;;;;22.40;8.07;;;;;;;-141.50;100.00;63355.56;5014496;28;20502;-82
2022/01/18 10:55:48;;;;;;;18.83;8.25;;;;;;;-141.50;100.00;63355.56;5032388;28;20103;-82
2022/01/18 10:58:19;;;;;;;19.50;7.10;;;;;;;-141.50;100.00;63355.56;5014421;28;20054;-81
2022/01/18 11:00:46;;;;;;;21.67;8.00;;;;;;;-141.50;100.00;63355.56;5030793;28;20077;-81
2022/01/18 11:03:14;;;;;;;27.45;8.85;;;;;;;-141.50;100.00;63355.56;5031707;28;20050;-81
2022/01/18 11:05:44;;;;;;;16.27;7.38;;;;;;;-141.50;100.00;63355.56;5029362;28;20537;-80
2022/01/18 11:08:15;;;;;;;16.42;6.88;;;;;;;-141.50;100.00;63355.56;5009814;28;20045;-82
2022/01/18 11:10:48;;;;;;;23.27;7.45;;;;;;;-141.50;100.00;63355.56;5010447;28;20054;-80
2022/01/18 11:13:34;;;;;;;21.15;7.60;;;;;;;-141.50;100.00;63355.56;5024345;28;20129;-81
2022/01/18 11:16:05;;;;;;;21.15;8.05;;;;;;;-141.50;100.00;63355.56;5013324;28;20061;-80
2022/01/18 11:18:36;;;;;;;18.52;7.80;;;;;;;-141.50;100.00;63355.56;5012492;28;20057;-82
2022/01/18 11:21:05;;;;;;;16.13;7.47;;;;;;;-141.50;100.00;63355.56;4994384;28;20077;-82
2022/01/18 11:23:34;;;;;;;21.27;8.02;;;;;;;-141.50;100.00;63355.56;4994041;28;20057;-82
2022/01/18 11:26:01;;;;;;;21.00;7.47;;;;;;;-141.50;100.00;63355.56;4994262;28;20415;-81
2022/01/18 11:28:29;;;;;;;17.48;6.50;;;;;;;-141.50;100.00;63355.56;5011378;28;20156;-82
2022/01/18 11:30:57;;;;;;;18.35;6.72;;;;;;;-141.50;100.00;63355.56;4994496;28;20054;-82
2022/01/18 11:33:27;;;;;;;15.98;6.78;;;;;;;-141.50;100.00;63355.56;4994202;28;20072;-82
2022/01/18 11:35:58;;;;;;;20.23;6.85;;;;;;;-141.50;100.00;63355.56;4995221;28;20085;-80
2022/01/18 11:38:34;;;;;;;17.38;5.82;;;;;;;-141.50;100.00;63355.56;5010949;28;20394;-82
2022/01/18 11:41:07;;;;;;;16.65;5.32;;;;;;;-141.50;100.00;63355.56;5010662;28;20086;-80
2022/01/18 11:43:45;;;;;;;12.93;4.57;;;;;;;-141.50;100.00;63355.56;5011522;28;20049;-82
2022/01/18 11:46:22;;;;;;;15.68;5.53;;;;;;;-141.50;100.00;63355.56;4994505;28;20057;-81
2022/01/18 11:48:58;;;;;;;16.98;4.25;;;;;;;-141.50;100.00;63355.56;5010844;28;20516;-81
2022/01/18 11:51:34;;;;;;;;;;;;;;;-141.50;100.00;63355.56;5012744;28;20436;-82
2022/01/18 11:54:20;;;;;;;12.75;4.82;;;;;;;-141.50;100.00;63355.56;5011375;28;19948;-81
2022/01/18 11:56:47;;;;;;;9.13;3.75;;;;;;;-141.50;100.00;63355.56;4993950;28;20046;-82
2022/01/18 11:59:16;;;;;;;10.95;3.38;;;;;;;-141.50;100.00;63355.56;5011277;28;20046;-81
2022/01/18 12:01:50;;;;;;;9.38;3.55;;;;;;;-141.50;100.00;63355.56;5011465;28;20289;-81
2022/01/18 12:04:40;;;;;;;8.80;3.65;;;;;;;-141.50;100.00;63355.56;5010995;28;20053;-83
2022/01/18 12:07:08;;;;;;;10.68;4.50;;;;;;;-141.50;100.00;63355.56;5012301;28;20115;-78
2022/01/18 12:09:37;;;;;;;11.45;5.53;;;;;;;-141.50;100.00;63355.56;5016947;28;20049;-80
2022/01/18 12:12:05;;;;;;;16.50;6.00;;;;;;;-141.50;100.00;63355.56;5003194;28;20050;-78
2022/01/18 12:14:33;;;;;;;12.60;6.38;;;;;;;-141.50;100.00;63355.56;5015114;28;20050;-81
2022/01/18 12:17:14;;;;;;;12.60;6.25;;;;;;;-141.50;100.00;63355.56;5012301;28;20054;-79